Strona główna
METAR-TAF:

METAR-TAF

Lotnisko :

Port lotniczy Hawarden

Hawarden, Walia

Szerokość geograficzna: 53-10N, Długość geograficzna: 002-59W, wysokość: 10 m

Aktualna obserwacja pogody

Raport powstał 43 minut temu, godzina 14:50 UTC
Wiatr 15 kt od północny zachód
Temperatura 13°C
Wilgotność 58%
Ciśnienie 1008 hPa
Widzialność 10 km lub więcej
Mało chmury na wysokości 1800 ft
Rozproszone chmury na wysokości 4000 ft

METAR: EGNR 171450Z 32015KT 9999 FEW018 SCT040 13/05 Q1008

czas: 16:33 (15:33 UTC)

Prognoza

Raport powstał 1 godzina i 36 minut temu, godzina 13:57 UTC
Prognoza ważna od 17 godzina 15 UTC do 17 godzina 20 UTC
Wiatr 12 kt od północny zachód
Widzialność 10 km lub więcej
Rozproszone chmury na wysokości 3500 ft

TAF: EGNR 171357Z 1715/1720 31012KT 9999 SCT035

Obserwacja i prognoza pogody dla ponad 4000 lotnisk (raport METAR i TAF).

Dostępne stacje oznaczono żółtymi i czerwonymi punktami na mapie.

Najedź kursorem aby zobaczyć nazwę stacji.

Kliknij aby zobaczyć obserwacje i prognozy pogody.

Aby zmienić mapę: kliknij na zielony przycisk z czarnym krzyżykiem, aby powiększyć; na zielony przycisk z myślnikiem, aby pomniejszyć; na zielone strzałki, aby przejść do map sąsiednich.


METAR-TAF: